createdAt,value
2018-11-03T00:00:49.779Z,1.00
2018-11-03T00:03:19.229Z,1.00
2018-11-03T00:05:47.390Z,1.00
2018-11-03T00:08:15.652Z,1.00
2018-11-03T00:13:11.832Z,1.00
2018-11-03T00:15:40.967Z,1.00
2018-11-03T00:18:18.177Z,1.00
2018-11-03T00:20:46.334Z,1.00
2018-11-03T00:23:25.582Z,1.00
2018-11-03T00:25:53.733Z,1.00
2018-11-03T00:28:21.888Z,1.00
2018-11-03T00:30:50.132Z,1.00
2018-11-03T00:33:18.338Z,1.00
2018-11-03T00:35:46.471Z,1.00
2018-11-03T00:38:14.713Z,1.00
2018-11-03T00:40:42.922Z,1.00
2018-11-03T00:43:12.687Z,1.00
2018-11-03T00:45:40.833Z,1.00
2018-11-03T00:48:09.026Z,1.00
2018-11-03T00:50:37.199Z,1.00
2018-11-03T00:53:05.879Z,1.00
2018-11-03T00:55:34.071Z,1.00
2018-11-03T00:58:02.466Z,1.00
2018-11-03T01:00:30.642Z,1.00
2018-11-03T01:02:58.837Z,1.00
2018-11-03T01:05:27.621Z,1.00
2018-11-03T01:07:56.110Z,1.00
2018-11-03T01:10:24.468Z,1.00
2018-11-03T01:12:52.840Z,1.00
2018-11-03T01:15:21.138Z,1.00
2018-11-03T01:17:49.373Z,1.00
2018-11-03T01:20:18.015Z,1.00
2018-11-03T01:22:46.224Z,1.00
2018-11-03T01:25:14.386Z,1.00
2018-11-03T01:27:42.612Z,1.00
2018-11-03T01:30:14.447Z,1.00
2018-11-03T01:32:42.779Z,1.00
2018-11-03T01:35:11.073Z,1.00
2018-11-03T01:37:39.792Z,1.00
2018-11-03T01:40:10.274Z,1.00
2018-11-03T01:42:39.354Z,1.00
2018-11-03T01:45:18.038Z,1.00
2018-11-03T01:47:46.213Z,1.00
2018-11-03T01:50:15.989Z,1.00
2018-11-03T01:52:44.296Z,1.00
2018-11-03T01:55:14.229Z,1.00
2018-11-03T01:57:42.558Z,1.00
2018-11-03T02:00:11.610Z,1.00
2018-11-03T02:02:39.881Z,1.00
2018-11-03T02:05:08.620Z,1.00
2018-11-03T02:07:36.845Z,1.00
2018-11-03T02:10:06.387Z,1.00
2018-11-03T02:12:34.821Z,1.00
2018-11-03T02:15:02.967Z,1.00
2018-11-03T02:17:37.922Z,1.00
2018-11-03T02:20:08.549Z,1.00
2018-11-03T02:22:37.344Z,1.00
2018-11-03T02:25:06.080Z,1.00
2018-11-03T02:27:34.320Z,1.00
2018-11-03T02:30:02.501Z,1.00
2018-11-03T02:32:30.634Z,1.00
2018-11-03T02:37:26.830Z,1.00
2018-11-03T02:39:54.985Z,1.00
2018-11-03T02:42:23.148Z,1.00
2018-11-03T02:44:51.330Z,1.00
2018-11-03T02:47:19.484Z,1.00
2018-11-03T02:49:47.701Z,1.00
2018-11-03T02:52:15.800Z,1.00
2018-11-03T02:57:18.544Z,1.00
2018-11-03T02:59:46.755Z,1.00
2018-11-03T03:02:14.895Z,1.00
2018-11-03T03:04:43.135Z,1.00
2018-11-03T03:07:11.268Z,1.00
2018-11-03T03:09:39.436Z,1.00
2018-11-03T03:12:07.734Z,1.00
2018-11-03T03:14:36.010Z,1.00
2018-11-03T03:17:04.287Z,1.00
2018-11-03T03:19:32.444Z,1.00
2018-11-03T03:22:00.576Z,1.00
2018-11-03T03:24:28.752Z,1.00
2018-11-03T03:26:56.893Z,1.00
2018-11-03T03:29:25.035Z,1.00
2018-11-03T03:31:53.309Z,1.00
2018-11-03T03:34:22.097Z,1.00
2018-11-03T03:36:50.235Z,2.50
2018-11-03T03:39:18.367Z,2.30
2018-11-03T03:41:46.571Z,2.90
2018-11-03T03:44:14.713Z,4.20
2018-11-03T03:46:42.907Z,4.10
2018-11-03T03:49:11.054Z,5.30
2018-11-03T03:51:39.280Z,7.10
2018-11-03T03:54:07.459Z,6.90
2018-11-03T03:56:35.615Z,7.70
2018-11-03T03:59:04.160Z,8.80
2018-11-03T04:01:32.386Z,9.00
2018-11-03T04:04:00.529Z,8.90
2018-11-03T04:06:28.708Z,9.90
2018-11-03T04:08:56.873Z,10.40
2018-11-03T04:11:25.017Z,10.60
2018-11-03T04:13:53.185Z,8.00
2018-11-03T04:16:28.232Z,8.70
2018-11-03T04:18:56.367Z,8.60
2018-11-03T04:21:29.614Z,8.90
2018-11-03T04:23:58.300Z,8.30
2018-11-03T04:26:27.993Z,8.90
2018-11-03T04:28:56.512Z,9.90
2018-11-03T04:31:25.334Z,9.90
2018-11-03T04:33:53.622Z,11.10
2018-11-03T04:36:22.090Z,10.00
2018-11-03T04:38:50.428Z,11.10
2018-11-03T04:41:20.873Z,11.80
2018-11-03T04:43:49.146Z,13.30
2018-11-03T04:46:17.332Z,12.70
2018-11-03T04:48:46.344Z,13.10
2018-11-03T04:51:14.491Z,13.00
2018-11-03T04:53:42.689Z,13.70
2018-11-03T04:56:10.850Z,14.40
2018-11-03T04:58:39.823Z,15.20
2018-11-03T05:01:09.211Z,13.80
2018-11-03T05:03:37.531Z,14.40
2018-11-03T05:06:05.953Z,14.20
2018-11-03T05:08:34.076Z,13.70
2018-11-03T05:11:02.224Z,14.30
2018-11-03T05:13:30.721Z,14.60
2018-11-03T05:15:59.176Z,14.60
2018-11-03T05:18:27.488Z,14.10
2018-11-03T05:20:55.661Z,13.10
2018-11-03T05:23:23.890Z,14.30
2018-11-03T05:25:52.051Z,14.20
2018-11-03T05:28:20.204Z,13.80
2018-11-03T05:30:48.419Z,13.80
2018-11-03T05:33:16.701Z,14.80
2018-11-03T05:35:44.844Z,14.40
2018-11-03T05:38:13.045Z,14.30
2018-11-03T05:40:41.596Z,13.60
2018-11-03T05:43:09.821Z,12.30
2018-11-03T05:45:38.020Z,16.00
2018-11-03T05:48:06.179Z,15.60
2018-11-03T05:50:34.353Z,18.50
2018-11-03T05:53:02.550Z,18.10
2018-11-03T05:55:30.694Z,19.40
2018-11-03T05:57:58.873Z,19.70
2018-11-03T06:00:28.052Z,21.60
2018-11-03T06:02:57.679Z,22.10
2018-11-03T06:05:26.097Z,22.10
2018-11-03T06:07:54.348Z,23.20
2018-11-03T06:10:22.484Z,22.20
2018-11-03T06:12:50.680Z,23.70
2018-11-03T06:15:18.973Z,22.00
2018-11-03T06:17:47.081Z,22.40
2018-11-03T06:20:15.213Z,22.70
2018-11-03T06:22:43.496Z,23.10
2018-11-03T06:25:12.085Z,23.40
2018-11-03T06:27:40.254Z,23.00
2018-11-03T06:30:09.898Z,23.00
2018-11-03T06:32:38.153Z,22.30
2018-11-03T06:35:07.003Z,21.80
2018-11-03T06:37:35.417Z,22.70
2018-11-03T06:40:03.637Z,22.00
2018-11-03T06:42:31.812Z,21.50
2018-11-03T06:45:00.003Z,21.60
2018-11-03T06:47:28.227Z,21.00
2018-11-03T06:49:56.391Z,21.20
2018-11-03T06:52:24.639Z,19.10
2018-11-03T06:54:52.917Z,16.00
2018-11-03T06:57:21.059Z,15.60
2018-11-03T06:59:49.252Z,17.20
2018-11-03T07:02:18.708Z,16.10
2018-11-03T07:04:47.198Z,16.20
2018-11-03T07:07:15.333Z,14.80
2018-11-03T07:09:43.460Z,13.70
2018-11-03T07:12:11.648Z,11.90
2018-11-03T07:14:39.772Z,12.00
2018-11-03T07:17:07.939Z,12.50
2018-11-03T07:19:36.125Z,11.30
2018-11-03T07:22:04.281Z,12.10
2018-11-03T07:24:32.463Z,12.00
2018-11-03T07:27:00.617Z,10.70
2018-11-03T07:29:28.927Z,10.70
2018-11-03T07:31:57.037Z,10.70
2018-11-03T07:34:25.281Z,10.20
2018-11-03T07:36:53.432Z,10.90
2018-11-03T07:39:21.627Z,12.40
2018-11-03T07:41:49.810Z,10.00
2018-11-03T07:44:17.947Z,9.90
2018-11-03T07:46:46.090Z,9.70
2018-11-03T07:49:17.185Z,10.50
2018-11-03T07:51:46.111Z,9.90
2018-11-03T07:54:14.340Z,9.30
2018-11-03T07:56:42.482Z,9.60
2018-11-03T07:59:10.668Z,8.70
2018-11-03T08:01:38.811Z,9.50
2018-11-03T08:04:07.648Z,7.20
2018-11-03T08:06:35.831Z,6.90
2018-11-03T08:09:07.619Z,7.00
2018-11-03T08:11:35.688Z,6.70
2018-11-03T08:14:04.077Z,4.70
2018-11-03T08:16:32.193Z,5.80
2018-11-03T08:19:00.571Z,5.20
2018-11-03T08:21:28.757Z,6.00
2018-11-03T08:23:56.973Z,6.10
2018-11-03T08:26:25.081Z,4.50
2018-11-03T08:28:53.292Z,5.40
2018-11-03T08:31:21.462Z,4.20
2018-11-03T08:33:49.643Z,3.70
2018-11-03T08:36:17.875Z,4.00
2018-11-03T08:38:47.172Z,5.70
2018-11-03T08:41:15.285Z,3.90
2018-11-03T08:43:43.464Z,1.50
2018-11-03T08:46:11.597Z,3.00
2018-11-03T08:48:40.515Z,3.60
2018-11-03T08:51:08.647Z,5.30
2018-11-03T08:53:36.889Z,4.10
2018-11-03T08:56:05.232Z,3.70
2018-11-03T08:58:34.498Z,3.50
2018-11-03T09:01:02.685Z,4.10
2018-11-03T09:03:31.003Z,3.90
2018-11-03T09:05:59.182Z,3.70
2018-11-03T09:10:55.252Z,1.50
2018-11-03T09:13:23.416Z,2.00
2018-11-03T09:15:51.619Z,1.00
2018-11-03T09:18:20.785Z,1.00
2018-11-03T09:20:48.991Z,1.20
2018-11-03T09:23:17.156Z,2.10
2018-11-03T09:25:45.316Z,1.00
2018-11-03T09:28:13.503Z,1.00
2018-11-03T09:30:41.689Z,1.00
2018-11-03T09:33:10.392Z,1.00
2018-11-03T09:35:38.571Z,1.00
2018-11-03T09:38:06.829Z,1.00
2018-11-03T09:40:35.001Z,1.00
2018-11-03T09:43:03.359Z,1.00
2018-11-03T09:45:31.522Z,1.00
2018-11-03T09:47:59.848Z,1.00
2018-11-03T09:50:28.025Z,1.00
2018-11-03T09:52:56.150Z,1.00
2018-11-03T09:55:24.280Z,1.00
2018-11-03T09:57:52.620Z,1.00
2018-11-03T10:00:21.563Z,1.00
2018-11-03T10:02:49.673Z,1.00
2018-11-03T10:07:46.162Z,1.00
2018-11-03T10:10:15.707Z,1.00
2018-11-03T10:12:44.118Z,1.00
2018-11-03T10:15:14.295Z,1.00
2018-11-03T10:17:43.337Z,1.00
2018-11-03T10:20:11.559Z,1.00
2018-11-03T10:22:39.792Z,1.00
2018-11-03T10:25:12.867Z,1.00
2018-11-03T10:27:41.974Z,1.00
2018-11-03T10:30:15.182Z,1.00
2018-11-03T10:32:43.566Z,1.00
2018-11-03T10:35:12.863Z,1.00
2018-11-03T10:37:41.597Z,1.00
2018-11-03T10:40:12.108Z,1.00
2018-11-03T10:42:40.616Z,1.00
2018-11-03T10:45:10.559Z,1.00
2018-11-03T10:47:40.234Z,1.00
2018-11-03T10:50:11.273Z,1.00
2018-11-03T10:52:42.665Z,1.00
2018-11-03T10:55:12.789Z,1.00
2018-11-03T10:57:42.763Z,1.00
2018-11-03T11:00:18.972Z,1.00
2018-11-03T11:02:52.659Z,1.00
2018-11-03T11:05:26.179Z,1.00
2018-11-03T11:07:59.844Z,1.00
2018-11-03T11:10:33.548Z,1.00
2018-11-03T11:13:10.767Z,1.00
2018-11-03T11:15:38.977Z,1.00
2018-11-03T11:18:07.134Z,1.00
2018-11-03T11:20:35.359Z,1.00
2018-11-03T11:23:03.656Z,1.00
2018-11-03T11:25:31.924Z,1.00
2018-11-03T11:28:00.444Z,1.00
2018-11-03T11:30:32.873Z,1.00
2018-11-03T11:33:01.049Z,1.00
2018-11-03T11:35:29.228Z,1.00
2018-11-03T11:37:57.428Z,1.00
2018-11-03T11:40:25.564Z,1.00
2018-11-03T11:42:53.831Z,1.00
2018-11-03T11:45:21.927Z,1.00
2018-11-03T11:47:50.131Z,1.00
2018-11-03T11:50:18.591Z,1.00
2018-11-03T11:52:46.741Z,1.00
2018-11-03T11:55:14.989Z,1.00
2018-11-03T11:57:43.215Z,1.00
2018-11-03T12:00:11.411Z,1.00
2018-11-03T12:02:39.599Z,1.00
2018-11-03T12:05:07.799Z,1.00
2018-11-03T12:10:04.032Z,1.00
2018-11-03T12:12:32.087Z,1.00
2018-11-03T12:15:00.346Z,1.00
2018-11-03T12:17:28.632Z,1.00
2018-11-03T12:19:56.920Z,1.00
2018-11-03T12:22:25.116Z,1.00
2018-11-03T12:27:21.299Z,1.00
2018-11-03T12:29:49.558Z,1.00
2018-11-03T12:32:17.816Z,1.00
2018-11-03T12:34:45.992Z,1.00
2018-11-03T12:37:14.188Z,1.00
2018-11-03T12:39:42.444Z,1.00
2018-11-03T12:42:10.629Z,1.00
2018-11-03T12:44:38.984Z,1.00
2018-11-03T12:47:07.124Z,1.00
2018-11-03T12:49:35.336Z,1.00
2018-11-03T12:52:03.506Z,1.00
2018-11-03T12:54:31.785Z,1.00
2018-11-03T12:57:00.092Z,1.00
2018-11-03T12:59:28.429Z,1.00
2018-11-03T13:01:56.495Z,1.00
2018-11-03T13:04:24.696Z,1.00
2018-11-03T13:06:52.907Z,1.00
2018-11-03T13:09:21.238Z,1.00
2018-11-03T13:11:49.372Z,1.00
2018-11-03T13:14:17.523Z,1.00
2018-11-03T13:16:45.847Z,1.00
2018-11-03T13:19:14.035Z,1.00
2018-11-03T13:21:42.289Z,1.00
2018-11-03T13:24:10.464Z,1.00
2018-11-03T13:26:38.664Z,1.00
2018-11-03T13:29:06.872Z,1.00
2018-11-03T13:31:35.028Z,1.00
2018-11-03T13:34:03.260Z,1.00
2018-11-03T13:36:31.417Z,1.00
2018-11-03T13:38:59.648Z,1.00
2018-11-03T13:41:27.907Z,1.00
2018-11-03T13:43:56.065Z,1.00
2018-11-03T13:46:24.339Z,1.00
2018-11-03T13:48:52.496Z,1.00
2018-11-03T13:51:20.682Z,1.00
2018-11-03T13:53:48.849Z,1.00
2018-11-03T13:56:17.052Z,1.00
2018-11-03T13:58:45.260Z,1.00
2018-11-03T14:03:41.367Z,1.00
2018-11-03T14:06:09.557Z,1.00
2018-11-03T14:08:38.252Z,1.00
2018-11-03T14:11:06.658Z,1.00
2018-11-03T14:13:34.798Z,1.00
2018-11-03T14:16:02.952Z,1.00
2018-11-03T14:18:31.127Z,1.00
2018-11-03T14:20:59.403Z,1.00
2018-11-03T14:23:27.666Z,1.00
2018-11-03T14:25:55.769Z,1.00
2018-11-03T14:28:24.112Z,1.00
2018-11-03T14:30:52.320Z,1.00
2018-11-03T14:33:20.537Z,1.00
2018-11-03T14:35:48.672Z,1.00
2018-11-03T14:38:16.895Z,1.00
2018-11-03T14:40:45.034Z,1.00
2018-11-03T14:43:13.175Z,1.00
2018-11-03T14:45:41.340Z,1.00
2018-11-03T14:48:09.518Z,1.00
2018-11-03T14:50:37.683Z,1.00
2018-11-03T14:53:05.859Z,1.00
2018-11-03T14:55:34.024Z,1.00
2018-11-03T14:58:02.196Z,1.00
2018-11-03T15:00:34.284Z,1.00
2018-11-03T15:03:02.620Z,1.00
2018-11-03T15:05:30.798Z,1.00
2018-11-03T15:07:59.011Z,1.00
2018-11-03T15:10:27.140Z,1.00
2018-11-03T15:12:55.400Z,1.00
2018-11-03T15:15:23.588Z,1.00
2018-11-03T15:17:51.738Z,1.00
2018-11-03T15:20:19.988Z,1.00
2018-11-03T15:22:48.223Z,1.00
2018-11-03T15:25:16.445Z,1.00
2018-11-03T15:27:44.628Z,1.00
2018-11-03T15:30:14.035Z,1.00
2018-11-03T15:32:42.442Z,1.00
2018-11-03T15:35:11.592Z,1.00
2018-11-03T15:37:39.905Z,1.00
2018-11-03T15:40:10.071Z,1.00
2018-11-03T15:42:38.306Z,1.00
2018-11-03T15:45:08.473Z,1.00
2018-11-03T15:52:24.280Z,1.00
2018-11-03T15:54:52.500Z,1.00
2018-11-03T15:57:20.715Z,1.00
2018-11-03T15:59:49.036Z,1.00
2018-11-03T16:02:17.197Z,1.00
2018-11-03T16:04:45.331Z,1.00
2018-11-03T16:07:13.793Z,1.00
2018-11-03T16:09:42.004Z,1.00
2018-11-03T16:12:10.311Z,1.00
2018-11-03T16:14:38.403Z,1.00
2018-11-03T16:17:06.592Z,1.00
2018-11-03T16:19:34.820Z,1.00
2018-11-03T16:22:03.081Z,1.00
2018-11-03T16:24:31.256Z,1.00
2018-11-03T16:26:59.452Z,1.00
2018-11-03T16:29:27.625Z,1.00
2018-11-03T16:31:55.880Z,1.00
2018-11-03T16:36:51.977Z,1.00
2018-11-03T16:39:20.313Z,1.00
2018-11-03T16:41:48.463Z,1.00
2018-11-03T16:44:16.788Z,1.00
2018-11-03T16:46:45.017Z,1.00
2018-11-03T16:49:17.245Z,1.00
2018-11-03T16:51:45.588Z,1.00
2018-11-03T16:54:13.810Z,1.00
2018-11-03T16:56:42.025Z,1.00
2018-11-03T16:59:10.275Z,1.00
2018-11-03T17:01:38.443Z,1.00
2018-11-03T17:04:06.593Z,1.00
2018-11-03T17:06:34.793Z,1.00
2018-11-03T17:09:03.100Z,1.00
2018-11-03T17:11:31.332Z,1.00
2018-11-03T17:13:59.512Z,1.00
2018-11-03T17:16:27.656Z,1.00
2018-11-03T17:18:55.946Z,1.00
2018-11-03T17:21:23.965Z,1.00
2018-11-03T17:23:52.128Z,1.00
2018-11-03T17:26:20.256Z,1.00
2018-11-03T17:28:48.401Z,1.00
2018-11-03T17:31:16.572Z,1.00
2018-11-03T17:33:44.713Z,1.00
2018-11-03T17:36:12.860Z,1.00
2018-11-03T17:38:41.007Z,1.00
2018-11-03T17:41:09.138Z,1.00
2018-11-03T17:43:37.313Z,1.00
2018-11-03T17:46:05.741Z,1.00
2018-11-03T17:48:33.900Z,1.00
2018-11-03T17:51:02.139Z,1.00
2018-11-03T17:53:30.306Z,1.00
2018-11-03T17:55:58.453Z,1.00
2018-11-03T17:58:26.602Z,1.00
2018-11-03T18:00:54.896Z,1.00
2018-11-03T18:03:22.969Z,1.00
2018-11-03T18:05:56.221Z,1.00
2018-11-03T18:08:24.365Z,1.00
2018-11-03T18:10:52.549Z,1.00
2018-11-03T18:13:20.764Z,1.00
2018-11-03T18:15:48.860Z,1.00
2018-11-03T18:18:16.993Z,1.00
2018-11-03T18:20:45.147Z,1.90
2018-11-03T18:23:13.296Z,1.90
2018-11-03T18:25:41.448Z,2.10
2018-11-03T18:28:09.668Z,3.90
2018-11-03T18:30:37.873Z,4.30
2018-11-03T18:33:06.082Z,6.60
2018-11-03T18:38:02.099Z,6.30
2018-11-03T18:40:30.241Z,7.00
2018-11-03T18:42:58.424Z,7.30
2018-11-03T18:45:26.560Z,7.40
2018-11-03T18:47:54.711Z,7.60
2018-11-03T18:50:22.860Z,8.60
2018-11-03T18:52:51.068Z,8.50
2018-11-03T18:55:19.140Z,9.00
2018-11-03T18:57:47.297Z,9.30
2018-11-03T19:00:15.460Z,9.30
2018-11-03T19:02:43.641Z,8.70
2018-11-03T19:05:11.776Z,9.10
2018-11-03T19:07:39.944Z,10.40
2018-11-03T19:10:08.724Z,9.80
2018-11-03T19:12:36.961Z,9.90
2018-11-03T19:15:05.676Z,9.60
2018-11-03T19:17:33.973Z,9.10
2018-11-03T19:20:09.604Z,10.10
2018-11-03T19:22:44.556Z,9.00
2018-11-03T19:25:13.734Z,8.50
2018-11-03T19:27:41.955Z,10.00
2018-11-03T19:30:11.901Z,7.70
2018-11-03T19:32:41.571Z,8.80
2018-11-03T19:35:09.947Z,7.90
2018-11-03T19:37:38.545Z,7.80
2018-11-03T19:40:08.569Z,8.20
2018-11-03T19:45:04.936Z,7.20
2018-11-03T19:47:33.212Z,7.50
2018-11-03T19:50:01.352Z,8.50
2018-11-03T19:52:29.580Z,7.70
2018-11-03T19:54:59.040Z,8.00
2018-11-03T19:57:27.602Z,8.00
2018-11-03T19:59:56.326Z,7.80
2018-11-03T20:02:24.643Z,7.60
2018-11-03T20:04:55.299Z,7.60
2018-11-03T20:07:23.482Z,7.10
2018-11-03T20:09:51.702Z,7.70
2018-11-03T20:12:19.933Z,7.60
2018-11-03T20:14:48.104Z,6.80
2018-11-03T20:17:16.332Z,9.30
2018-11-03T20:19:45.042Z,8.10
2018-11-03T20:22:13.246Z,7.10
2018-11-03T20:24:41.410Z,7.90
2018-11-03T20:27:09.698Z,8.30
2018-11-03T20:29:37.867Z,9.40
2018-11-03T20:32:06.103Z,9.80
2018-11-03T20:34:34.293Z,7.90
2018-11-03T20:37:02.483Z,8.60
2018-11-03T20:39:30.895Z,9.00
2018-11-03T20:41:59.431Z,9.40
2018-11-03T20:44:27.516Z,8.40
2018-11-03T20:46:55.912Z,8.40
2018-11-03T20:49:24.100Z,9.10
2018-11-03T20:51:52.318Z,10.70
2018-11-03T20:54:20.585Z,11.00
2018-11-03T20:56:48.808Z,9.80
2018-11-03T20:59:16.991Z,9.80
2018-11-03T21:01:45.281Z,9.70
2018-11-03T21:04:13.528Z,10.80
2018-11-03T21:06:41.838Z,11.30
2018-11-03T21:09:10.928Z,10.20
2018-11-03T21:11:39.111Z,12.20
2018-11-03T21:14:07.317Z,11.90
2018-11-03T21:16:35.788Z,11.30
2018-11-03T21:19:04.077Z,11.70
2018-11-03T21:21:32.241Z,12.70
2018-11-03T21:24:00.699Z,13.00
2018-11-03T21:26:29.044Z,12.70
2018-11-03T21:28:57.284Z,12.50
2018-11-03T21:31:25.508Z,12.20
2018-11-03T21:33:53.803Z,13.50
2018-11-03T21:36:21.933Z,13.50
2018-11-03T21:38:50.258Z,13.10
2018-11-03T21:41:18.305Z,13.20
2018-11-03T21:43:46.557Z,12.50
2018-11-03T21:46:14.855Z,13.00
2018-11-03T21:48:43.149Z,12.50
2018-11-03T21:51:11.354Z,14.00
2018-11-03T21:53:39.519Z,12.60
2018-11-03T21:56:08.111Z,13.60
2018-11-03T21:58:36.285Z,13.40
2018-11-03T22:01:04.762Z,12.20
2018-11-03T22:03:32.941Z,14.20
2018-11-03T22:08:41.517Z,13.20
2018-11-03T22:11:10.019Z,11.80
2018-11-03T22:13:38.265Z,12.50
2018-11-03T22:16:06.492Z,14.80
2018-11-03T22:18:34.734Z,14.50
2018-11-03T22:21:02.913Z,13.50
2018-11-03T22:23:31.249Z,13.30
2018-11-03T22:25:59.405Z,14.10
2018-11-03T22:28:27.575Z,15.90
2018-11-03T22:30:55.768Z,14.00
2018-11-03T22:33:24.014Z,14.40
2018-11-03T22:35:52.244Z,16.10
2018-11-03T22:38:20.405Z,15.40
2018-11-03T22:40:48.630Z,16.50
2018-11-03T22:43:16.830Z,16.10
2018-11-03T22:45:45.002Z,16.90
2018-11-03T22:48:13.180Z,14.80
2018-11-03T22:50:41.400Z,16.30
2018-11-03T22:53:09.744Z,16.40
2018-11-03T22:55:37.923Z,16.20
2018-11-03T22:58:06.522Z,16.90
2018-11-03T23:00:39.054Z,17.50
2018-11-03T23:03:07.243Z,17.90
2018-11-03T23:05:35.505Z,18.70
2018-11-03T23:08:03.816Z,18.60
2018-11-03T23:10:31.960Z,18.70
2018-11-03T23:13:00.245Z,18.10
2018-11-03T23:15:28.339Z,17.90
2018-11-03T23:17:56.684Z,17.80
2018-11-03T23:20:24.896Z,18.50
2018-11-03T23:22:53.073Z,19.30
2018-11-03T23:25:21.269Z,20.80
2018-11-03T23:27:49.451Z,20.80
2018-11-03T23:30:17.803Z,19.70
2018-11-03T23:32:45.878Z,20.20
2018-11-03T23:35:14.435Z,20.80
2018-11-03T23:37:42.947Z,20.50
2018-11-03T23:40:11.429Z,21.50
2018-11-03T23:42:39.599Z,21.70
2018-11-03T23:45:09.168Z,20.60
2018-11-03T23:47:37.346Z,21.50
2018-11-03T23:50:07.188Z,22.30
2018-11-03T23:52:35.944Z,23.00
2018-11-03T23:55:06.075Z,23.20
2018-11-03T23:57:34.241Z,23.00
